ADDS METAR Data INFO
IDs: Format: Raw Decoded Include TAF

Data at: 1750 UTC 21 Oct 2017

KTYQ 211735Z AUTO 19008KT 7SM CLR 20/10 A3018 RMK AO2 T01980100
KTYQ 211715Z AUTO 18008KT 10SM CLR 19/10 A3020 RMK AO2 T01920103
KTYQ 211655Z AUTO 17007KT 10SM CLR 18/10 A3020 RMK AO2 T01800100
KTYQ 211635Z AUTO 18006KT 10SM CLR 18/10 A3021 RMK AO2 T01770102
KTYQ 211615Z AUTO 19006KT 10SM CLR 17/10 A3021 RMK AO2 T01730103
KTYQ 211555Z AUTO 18006KT 10SM CLR 17/10 A3021 RMK AO2 T01710103
KTYQ 211535Z AUTO 19006KT 10SM CLR 17/10 A3021 RMK AO2 T01680103
KTYQ 211515Z AUTO 18007KT 10SM CLR 17/10 A3021 RMK AO2 T01670103
KTYQ 211455Z AUTO 18008KT 10SM CLR 17/10 A3020 RMK AO2 T01660101
KTYQ 211435Z AUTO 18007KT 10SM CLR 16/11 A3021 RMK AO2 T01590107
KTYQ 211415Z AUTO 18006KT 10SM CLR 16/11 A3021 RMK AO2 T01560108
KTYQ 211355Z AUTO 16004KT 10SM CLR 14/11 A3021 RMK AO2 T01440112
KTYQ 211335Z AUTO 17003KT 10SM CLR 13/11 A3021 RMK AO2 T01340109
KTYQ 211315Z AUTO 00000KT 10SM CLR 12/11 A3021 RMK AO2 LTG DSNT NW T01150105
KTYQ 211255Z AUTO 15003KT 10SM CLR 10/10 A3021 RMK AO2 T01010096
KTYQ 211235Z AUTO 00000KT 10SM CLR 08/08 A3020 RMK AO2 T00820079
KTYQ 211215Z AUTO 14003KT 10SM CLR 08/08 A3019 RMK AO2 T00810079
KTYQ 211155Z AUTO 00000KT 10SM CLR 08/07 A3018 RMK AO2 T00760073 10136 20076
KTYQ 211135Z AUTO 00000KT 10SM CLR 08/08 A3018 RMK AO2 T00840080
KTYQ 211115Z AUTO 00000KT 10SM CLR 08/08 A3018 RMK AO2 T00800075
KTYQ 211055Z AUTO 00000KT 10SM CLR 10/09 A3018 RMK AO2 LTG DSNT NW T00990092
KTYQ 211035Z AUTO 00000KT 10SM CLR 10/09 A3017 RMK AO2 T01030090
KTYQ 211015Z AUTO 00000KT 10SM CLR 11/10 A3016 RMK AO2 T01120096
KTYQ 210955Z AUTO 13003KT 10SM CLR 11/10 A3016 RMK AO2 T01140096
KTYQ 210935Z AUTO 00000KT 10SM CLR 11/09 A3016 RMK AO2 T01100093
KTYQ 210915Z AUTO 00000KT 10SM CLR 12/10 A3016 RMK AO2 T01180095
KTYQ 210855Z AUTO 14003KT 10SM CLR 12/09 A3016 RMK AO2 T01240094
KTYQ 210835Z AUTO 17003KT 10SM CLR 12/09 A3016 RMK AO2 T01240092
KTYQ 210815Z AUTO 18003KT 10SM CLR 13/10 A3016 RMK AO2 T01290095
KTYQ 210755Z AUTO 16004KT 10SM CLR 13/09 A3015 RMK AO2 T01250092
KTYQ 210735Z AUTO 16004KT 10SM CLR 13/09 A3016 RMK AO2 T01260093
KTYQ 210715Z AUTO 16004KT 10SM CLR 13/09 A3016 RMK AO2 T01270093
KTYQ 210655Z AUTO 17003KT 10SM CLR 14/10 A3016 RMK AO2 T01360095
KTYQ 210635Z AUTO 15006KT 10SM CLR 12/10 A3015 RMK AO2 T01210095
KTYQ 210615Z AUTO 16005KT 10SM CLR 13/09 A3015 RMK AO2 T01290092
KTYQ 210555Z AUTO 16004KT 10SM CLR 13/09 A3015 RMK AO2 T01270091 10151 20120
KTYQ 210535Z AUTO 16005KT 10SM CLR 13/09 A3015 RMK AO2 T01310092
KTYQ 210515Z AUTO 15005KT 10SM CLR 12/09 A3016 RMK AO2 T01240090
KTYQ 210455Z AUTO 15004KT 10SM CLR 12/09 A3016 RMK AO2 T01230088
KTYQ 210435Z AUTO 17003KT 10SM CLR 14/09 A3016 RMK AO2 T01370090
KTYQ 210415Z AUTO 17004KT 10SM CLR 13/09 A3016 RMK AO2 T01340092
KTYQ 210355Z AUTO 17005KT 10SM CLR 15/09 A3016 RMK AO2 T01490092 402360065
KTYQ 210335Z AUTO 16004KT 10SM CLR 14/09 A3016 RMK AO2 T01400094
KTYQ 210315Z AUTO 16005KT 10SM CLR 15/10 A3016 RMK AO2 T01480095
KTYQ 210255Z AUTO 17004KT 10SM CLR 15/10 A3016 RMK AO2 T01470096
KTYQ 210235Z AUTO 17004KT 10SM CLR 13/09 A3016 RMK AO2 T01300094
KTYQ 210215Z AUTO 17003KT 10SM CLR 13/09 A3016 RMK AO2 T01270092
KTYQ 210155Z AUTO 16003KT 10SM CLR 13/09 A3016 RMK AO2 T01330090
KTYQ 210135Z AUTO 16003KT 10SM CLR 13/09 A3016 RMK AO2 T01270090
KTYQ 210115Z AUTO 17003KT 10SM CLR 14/09 A3016 RMK AO2 T01350087
KTYQ 210055Z AUTO 00000KT 10SM CLR 13/09 A3016 RMK AO2 T01340088
KTYQ 210035Z AUTO 15003KT 10SM CLR 13/09 A3016 RMK AO2 T01340090
KTYQ 210015Z AUTO 14003KT 10SM CLR 15/09 A3016 RMK AO2 T01470090
KTYQ 202355Z AUTO 00000KT 10SM CLR 15/09 A3016 RMK AO2 T01490090 10236 20148
KTYQ 202335Z AUTO 17003KT 10SM CLR 16/09 A3016 RMK AO2 T01630087
KTYQ 202315Z AUTO 16004KT 10SM CLR 18/09 A3016 RMK AO2 T01770090
KTYQ 202255Z AUTO 16003KT 10SM CLR 18/09 A3016 RMK AO2 T01810092
KTYQ 202235Z AUTO 17003KT 7SM CLR 19/10 A3016 RMK AO2 T01940097
KTYQ 202215Z AUTO 20005KT 10SM CLR 21/10 A3016 RMK AO2 T02100096
KTYQ 202155Z AUTO 17006KT 10SM CLR 22/09 A3016 RMK AO2 T02220089
KTYQ 202135Z AUTO 19006KT 10SM CLR 23/09 A3016 RMK AO2 T02300088
KTYQ 202115Z AUTO 18007KT 10SM CLR 23/09 A3016 RMK AO2 T02330094
KTYQ 202055Z AUTO 19007KT 10SM CLR 24/09 A3017 RMK AO2 T02350088
KTYQ 202035Z AUTO 20007KT 10SM CLR 24/10 A3017 RMK AO2 T02350099
KTYQ 202015Z AUTO 20007KT 10SM CLR 23/10 A3017 RMK AO2 T02320095
KTYQ 201955Z AUTO 21007KT 10SM CLR 23/10 A3018 RMK AO2 T02340097
KTYQ 201935Z AUTO 21007KT 10SM CLR 23/09 A3019 RMK AO2 T02320093
KTYQ 201915Z AUTO 21008KT 10SM CLR 23/10 A3019 RMK AO2 T02310099
KTYQ 201855Z AUTO 20009KT 10SM CLR 23/10 A3021 RMK AO2 T02310101
KTYQ 201835Z AUTO 17008KT 10SM CLR 23/11 A3021 RMK AO2 T02260107
KTYQ 201815Z AUTO 16008G14KT 7SM CLR 22/11 A3022 RMK AO2 T02240108
KTYQ 201755Z AUTO 19009KT 7SM CLR 22/11 A3023 RMK AO2 T02240111 10224 20067
KTYQ 201735Z AUTO 19011G16KT 7SM CLR 22/11 A3024 RMK AO2 T02220108
KTYQ 201715Z AUTO 21007KT 5SM HZ CLR 22/11 A3025 RMK AO2 T02170111
KTYQ 201655Z AUTO 18009KT 10SM CLR 22/11 A3026 RMK AO2 T02150109
KTYQ 201635Z AUTO 19007KT 10SM CLR 21/12 A3026 RMK AO2 T02130115
KTYQ 201615Z AUTO 17006KT 10SM CLR 21/11 A3026 RMK AO2 T02050114
KTYQ 201555Z AUTO 19006KT 5SM HZ CLR 20/12 A3027 RMK AO2 T02030117
KTYQ 201535Z AUTO 18006KT 7SM CLR 19/12 A3028 RMK AO2 T01940120
KTYQ 201515Z AUTO 19004KT 7SM CLR 19/12 A3029 RMK AO2 T01870122
KTYQ 201455Z AUTO 19004KT 10SM CLR 18/12 A3029 RMK AO2 T01750120
KTYQ 201435Z AUTO 20005KT 10SM CLR 16/12 A3029 RMK AO2 T01640115
KTYQ 201415Z AUTO 18004KT 10SM CLR 16/12 A3029 RMK AO2 T01550116
KTYQ 201355Z AUTO 16003KT 10SM CLR 14/12 A3029 RMK AO2 T01400116
KTYQ 201335Z AUTO 00000KT 10SM CLR 13/11 A3029 RMK AO2 T01270114
KTYQ 201315Z AUTO 00000KT 7SM CLR 11/11 A3028 RMK AO2 T01110107
KTYQ 201255Z AUTO 00000KT 5SM BR CLR 09/09 A3028 RMK AO2 T00880088
KTYQ 201235Z AUTO 00000KT 5SM BR CLR 07/07 A3028 RMK AO2 T00700069
KTYQ 201215Z AUTO 00000KT 5SM BR CLR 07/07 A3027 RMK AO2 T00680068
KTYQ 201155Z AUTO 16003KT 5SM BR CLR 07/07 A3027 RMK AO2 T00680067 10087 20065
KTYQ 201135Z AUTO 00000KT 5SM BR CLR 07/07 A3026 RMK AO2 T00710070
KTYQ 201115Z AUTO 00000KT 5SM BR CLR 07/06 A3026 RMK AO2 T00650063
KTYQ 201055Z AUTO 00000KT 7SM CLR 07/07 A3026 RMK AO2 T00700066
KTYQ 201035Z AUTO 00000KT 10SM CLR 07/07 A3026 RMK AO2 T00690068
KTYQ 201015Z AUTO 00000KT 7SM CLR 08/08 A3025 RMK AO2 T00770077
KTYQ 200955Z AUTO 00000KT 10SM CLR 08/08 A3024 RMK AO2 T00780077
KTYQ 200935Z AUTO 00000KT 10SM CLR 08/07 A3024 RMK AO2 T00760072
KTYQ 200915Z AUTO 00000KT 10SM CLR 08/08 A3023 RMK AO2 T00800077
KTYQ 200855Z AUTO 00000KT 10SM CLR 08/08 A3023 RMK AO2 T00830082
KTYQ 200835Z AUTO 00000KT 10SM CLR 09/09 A3023 RMK AO2 T00870085
KTYQ 200815Z AUTO 18003KT 10SM CLR 09/08 A3023 RMK AO2 T00860082
KTYQ 200755Z AUTO 17003KT 10SM CLR 08/07 A3023 RMK AO2 T00780074
KTYQ 200730Z AUTO 00000KT 7SM CLR 08/08 A3023 RMK AO2 T00800079
KTYQ 200715Z AUTO 00000KT 10SM CLR 08/08 A3023 RMK AO2 T00830079
KTYQ 200655Z AUTO 00000KT 10SM CLR 08/08 A3023 RMK AO2 T00810076
KTYQ 200635Z AUTO 00000KT 7SM CLR 08/08 A3023 RMK AO2 T00830077
KTYQ 200615Z AUTO 00000KT 7SM CLR 08/08 A3023 RMK AO2 T00790077
KTYQ 200555Z AUTO 00000KT 10SM CLR 08/08 A3023 RMK AO2 T00840081 10150 20081